This is the latest recevied weather packets stored in our database for station/object K4GSL. If no packets are shown the sender has not sent any weather packets the latest 1 day(s).
| Time | Temp. | Humidity | Pressure | Rain* | Wind** | Luminosity | Snow |
|---|---|---|---|---|---|---|---|
| 1778102843 | 21.67° C | 65% | 1024.5 hPa | 0 mm | - | 797 W/m² | - |
| 1778102234 | 21.11° C | 70% | 1024.6 hPa | 0 mm | - | 773 W/m² | - |
| 1778099809 | 20° C | 71% | 1024.6 hPa | 0 mm | - | 154 W/m² | - |
| 1778099204 | 18.89° C | 74% | 1024.7 hPa | 0 mm | - | 233 W/m² | - |
| 1778098293 | 18.89° C | 76% | 1024.9 hPa | 0 mm | - | 222 W/m² | - |
| 1778097383 | 18.89° C | 75% | 1025.1 hPa | 0 mm | - | 313 W/m² | - |
| 1778095565 | 17.78° C | 78% | 1025 hPa | 0 mm | - | 372 W/m² | - |
| 1778094351 | 17.78° C | 78% | 1024.9 hPa | 0 mm | - | 247 W/m² | - |
| 1778094048 | 17.78° C | 78% | 1025 hPa | 0 mm | - | 466 W/m² | - |
| 1778093745 | 18.33° C | 76% | 1024.9 hPa | 0 mm | - | 197 W/m² | - |
| 1778093139 | 18.33° C | 77% | 1024.8 hPa | 0 mm | - | 188 W/m² | - |
| 1778090714 | 17.78° C | 77% | 1024.7 hPa | 0 mm | - | 648 W/m² | - |
| 1778090411 | 17.78° C | 77% | 1024.7 hPa | 0 mm | - | 634 W/m² | - |
| 1778087986 | 16.11° C | 83% | 1024.6 hPa | 0 mm | - | 86 W/m² | - |
| 1778087078 | 16.11° C | 86% | 1024.6 hPa | 0 mm | - | 64 W/m² | - |
| 1778086475 | 15.56° C | 87% | 1024.9 hPa | 0 mm | - | 269 W/m² | - |
| 1778081417 | 13.33° C | 90% | 1024.9 hPa | 0 mm | - | 49 W/m² | - |
| 1778080812 | 12.78° C | 93% | 1024.8 hPa | 0 mm | - | 84 W/m² | - |
| 1778078690 | 11.11° C | 99% | 1024.8 hPa | 0 mm | - | 80 W/m² | - |
| 1778077481 | 10° C | 99% | 1025 hPa | 0 mm | - | 32 W/m² | - |
| 1778077179 | 10° C | 99% | 1024.9 hPa | 0 mm | - | 27 W/m² | - |
| 1778074755 | 9.44° C | 99% | 1024.7 hPa | 0 mm | - | 5 W/m² | - |
| 1778072331 | 9.44° C | 99% | 1024.6 hPa | 0 mm | - | 0 W/m² | - |
| 1778071727 | 8.89° C | 99% | 1024.4 hPa | 0 mm | - | 0 W/m² | - |
| 1778067794 | 7.78° C | 99% | 1023.5 hPa | 0 mm | - | 0 W/m² | - |
* Rain latest hour (hover to see other rain measurements)
** Current wind speed in m/s (hover to see current wind gust speed)